createdAt,value
2023-05-19T00:00:40.725Z,101661.05
2023-05-19T00:05:56.082Z,101662.19
2023-05-19T00:10:59.841Z,101665.48
2023-05-19T00:16:03.471Z,101665.11
2023-05-19T00:21:06.665Z,101662.98
2023-05-19T00:26:10.895Z,101658.80
2023-05-19T00:31:14.220Z,101653.59
2023-05-19T00:36:17.530Z,101654.94
2023-05-19T00:41:21.446Z,101650.20
2023-05-19T00:46:25.302Z,101646.98
2023-05-19T00:51:30.112Z,101641.47
2023-05-19T00:56:33.843Z,101641.39
2023-05-19T01:01:37.690Z,101636.20
2023-05-19T01:06:42.639Z,101632.16
2023-05-19T01:11:46.119Z,101633.46
2023-05-19T01:17:21.071Z,101634.63
2023-05-19T01:22:55.307Z,101633.50
2023-05-19T01:28:55.653Z,101634.48
2023-05-19T01:34:00.553Z,101635.41
2023-05-19T01:39:04.325Z,101632.98
2023-05-19T01:44:08.665Z,101628.94
2023-05-19T01:49:12.339Z,101625.95
2023-05-19T01:54:15.795Z,101624.91
2023-05-19T01:59:35.085Z,101626.93
2023-05-19T02:05:11.499Z,101627.89
2023-05-19T02:10:33.432Z,101630.34
2023-05-19T02:15:42.665Z,101631.36
2023-05-19T02:20:45.974Z,101631.72
2023-05-19T02:25:49.277Z,101632.75
2023-05-19T02:30:52.491Z,101637.54
2023-05-19T02:35:56.558Z,101641.59
2023-05-19T02:40:59.736Z,101641.70
2023-05-19T02:46:02.954Z,101641.27
2023-05-19T02:51:06.136Z,101637.66
2023-05-19T02:56:09.567Z,101636.27
2023-05-19T03:01:12.876Z,101638.23
2023-05-19T03:06:18.271Z,101636.11
2023-05-19T03:11:21.430Z,101634.74
2023-05-19T03:16:24.980Z,101637.44
2023-05-19T03:21:28.257Z,101637.98
2023-05-19T03:26:31.371Z,101639.31
2023-05-19T03:31:34.571Z,101641.52
2023-05-19T03:36:40.441Z,101643.45
2023-05-19T03:41:43.752Z,101642.21
2023-05-19T03:46:46.966Z,101638.84
2023-05-19T03:51:50.179Z,101632.59
2023-05-19T03:56:53.888Z,101636.21
2023-05-19T04:01:58.146Z,101636.74
2023-05-19T04:07:01.533Z,101641.51
2023-05-19T04:12:06.004Z,101641.08
2023-05-19T04:17:09.528Z,101640.86
2023-05-19T04:22:12.801Z,101639.83
2023-05-19T04:27:16.413Z,101642.19
2023-05-19T04:32:19.526Z,101644.20
2023-05-19T04:37:23.035Z,101647.23
2023-05-19T04:42:26.560Z,101647.65
2023-05-19T04:47:30.525Z,101650.23
2023-05-19T04:52:34.443Z,101654.55
2023-05-19T04:57:38.015Z,101656.09
2023-05-19T05:02:43.283Z,101662.31
2023-05-19T05:07:47.098Z,101665.33
2023-05-19T05:12:50.921Z,101672.09
2023-05-19T05:17:54.554Z,101672.85
2023-05-19T05:22:58.350Z,101661.42
2023-05-19T05:28:05.449Z,101657.48
2023-05-19T05:33:09.675Z,101656.46
2023-05-19T05:38:13.403Z,101656.41
2023-05-19T05:43:16.845Z,101661.32
2023-05-19T05:48:20.536Z,101663.08
2023-05-19T05:53:26.102Z,101659.98
2023-05-19T05:58:29.804Z,101660.88
2023-05-19T06:03:33.714Z,101659.27
2023-05-19T06:08:37.159Z,101667.10
2023-05-19T06:13:43.598Z,101666.52
2023-05-19T06:18:47.079Z,101670.14
2023-05-19T06:23:50.283Z,101674.61
2023-05-19T06:28:53.380Z,101669.77
2023-05-19T06:33:56.583Z,101671.48
2023-05-19T06:39:01.309Z,101672.02
2023-05-19T06:44:10.847Z,101674.02
2023-05-19T06:49:14.295Z,101671.11
2023-05-19T06:54:17.577Z,101673.20
2023-05-19T06:59:22.673Z,101677.31
2023-05-19T07:04:26.108Z,101678.63
2023-05-19T07:09:29.277Z,101682.27
2023-05-19T07:14:32.586Z,101682.07
2023-05-19T07:19:35.794Z,101678.92
2023-05-19T07:24:38.999Z,101684.23
2023-05-19T07:29:42.313Z,101691.14
2023-05-19T07:34:46.038Z,101693.48
2023-05-19T07:39:49.280Z,101690.57
2023-05-19T07:44:52.452Z,101694.03
2023-05-19T07:49:55.757Z,101697.56
2023-05-19T07:54:59.991Z,101700.13
2023-05-19T08:00:07.971Z,101703.36
2023-05-19T08:05:11.936Z,101701.38
2023-05-19T08:10:15.650Z,101700.17
2023-05-19T08:15:19.372Z,101700.06
2023-05-19T08:20:23.302Z,101698.48
2023-05-19T08:25:26.611Z,101691.73
2023-05-19T08:30:29.839Z,101691.91
2023-05-19T08:35:33.479Z,101692.92
2023-05-19T08:40:38.392Z,101694.19
2023-05-19T08:45:46.816Z,101692.45
2023-05-19T08:51:01.186Z,101689.66
2023-05-19T08:56:37.571Z,101691.16
2023-05-19T09:01:46.045Z,101691.38
2023-05-19T09:06:50.645Z,101690.77
2023-05-19T09:11:53.958Z,101694.00
2023-05-19T09:16:57.418Z,101695.11
2023-05-19T09:22:03.676Z,101692.36
2023-05-19T09:27:07.266Z,101696.42
2023-05-19T09:32:10.658Z,101690.04
2023-05-19T09:37:14.090Z,101690.21
2023-05-19T09:42:17.453Z,101693.62
2023-05-19T09:47:20.971Z,101689.62
2023-05-19T09:52:24.851Z,101689.52
2023-05-19T09:57:28.866Z,101689.08
2023-05-19T10:02:33.243Z,101688.31
2023-05-19T10:07:37.872Z,101686.48
2023-05-19T10:12:42.586Z,101689.02
2023-05-19T10:17:46.949Z,101681.42
2023-05-19T10:22:50.641Z,101683.27
2023-05-19T10:27:58.877Z,101688.59
2023-05-19T10:33:07.902Z,101690.47
2023-05-19T10:38:35.698Z,101686.77
2023-05-19T10:44:00.412Z,101686.23
2023-05-19T10:49:03.619Z,101682.64
2023-05-19T10:54:14.394Z,101684.57
2023-05-19T10:59:35.847Z,101688.31
2023-05-19T11:04:51.766Z,101688.90
2023-05-19T11:09:55.364Z,101692.69
2023-05-19T11:14:59.707Z,101697.20
2023-05-19T11:20:24.631Z,101693.28
2023-05-19T11:25:45.333Z,101690.79
2023-05-19T11:30:50.882Z,101688.55
2023-05-19T11:35:59.726Z,101679.06
2023-05-19T11:41:04.130Z,101670.23
2023-05-19T11:46:10.108Z,101676.19
2023-05-19T11:51:13.764Z,101680.36
2023-05-19T11:56:16.970Z,101686.84
2023-05-19T12:01:27.448Z,101693.33
2023-05-19T12:06:31.378Z,101691.33
2023-05-19T12:11:35.609Z,101688.10
2023-05-19T12:27:22.517Z,101682.98
2023-05-19T12:32:26.200Z,101690.45
2023-05-19T12:37:29.736Z,101694.05
2023-05-19T12:42:31.933Z,101693.71
2023-05-19T12:47:35.392Z,101693.34
2023-05-19T12:52:43.455Z,101693.11
2023-05-19T12:57:51.633Z,101695.72
2023-05-19T13:03:04.789Z,101698.25
2023-05-19T13:08:07.919Z,101694.68
2023-05-19T13:13:09.915Z,101689.52
2023-05-19T13:18:13.435Z,101678.79
2023-05-19T13:23:15.611Z,101663.91
2023-05-19T13:28:18.320Z,101660.02
2023-05-19T13:33:20.412Z,101656.35
2023-05-19T13:38:22.276Z,101651.73
2023-05-19T13:43:24.765Z,101649.55
2023-05-19T13:48:27.055Z,101657.15
2023-05-19T13:53:30.772Z,101661.25
2023-05-19T13:58:32.749Z,101664.40
2023-05-19T14:03:34.979Z,101662.98
2023-05-19T14:08:37.016Z,101667.50
2023-05-19T14:13:41.925Z,101670.58
2023-05-19T14:18:45.399Z,101664.27
2023-05-19T14:23:47.703Z,101653.90
2023-05-19T14:28:50.151Z,101643.86
2023-05-19T14:33:52.244Z,101632.14
2023-05-19T14:38:54.106Z,101631.30
2023-05-19T14:43:56.285Z,101637.46
2023-05-19T14:48:58.162Z,101636.77
2023-05-19T14:54:01.713Z,101644.83
2023-05-19T14:59:04.074Z,101646.44
2023-05-19T15:04:06.102Z,101642.58
2023-05-19T15:09:08.086Z,101646.00
2023-05-19T15:14:10.212Z,101642.02
2023-05-19T15:19:12.491Z,101636.98
2023-05-19T15:24:15.503Z,101629.86
2023-05-19T15:29:17.791Z,101626.90
2023-05-19T15:34:20.704Z,101624.41
2023-05-19T15:39:22.874Z,101625.32
2023-05-19T15:44:27.632Z,101619.11
2023-05-19T15:49:30.933Z,101617.30
2023-05-19T15:54:33.424Z,101616.08
2023-05-19T15:59:37.679Z,101617.23
2023-05-19T16:04:42.375Z,101613.71
2023-05-19T16:09:46.911Z,101617.07
2023-05-19T16:14:49.737Z,101614.08
2023-05-19T16:19:51.674Z,101616.98
2023-05-19T16:24:53.715Z,101617.33
2023-05-19T16:29:55.591Z,101616.59
2023-05-19T16:34:57.448Z,101617.20
2023-05-19T16:40:00.054Z,101614.82
2023-05-19T16:45:02.224Z,101618.45
2023-05-19T16:50:06.980Z,101620.95
2023-05-19T16:55:09.488Z,101615.05
2023-05-19T17:00:12.987Z,101613.02
2023-05-19T17:05:15.587Z,101613.52
2023-05-19T17:10:18.057Z,101617.10
2023-05-19T17:15:19.937Z,101615.89
2023-05-19T17:20:21.822Z,101612.44
2023-05-19T17:25:23.793Z,101607.44
2023-05-19T17:30:26.077Z,101610.67
2023-05-19T17:35:28.612Z,101612.69
2023-05-19T17:40:31.378Z,101614.07
2023-05-19T17:45:34.069Z,101612.52
2023-05-19T17:50:36.252Z,101614.62
2023-05-19T17:55:38.943Z,101614.33
2023-05-19T18:00:41.268Z,101618.67
2023-05-19T18:05:44.389Z,101617.70
2023-05-19T18:10:48.922Z,101621.54
2023-05-19T18:15:52.323Z,101616.70
2023-05-19T18:20:54.677Z,101617.92
2023-05-19T18:25:56.602Z,101617.92
2023-05-19T18:31:04.265Z,101621.14
2023-05-19T18:36:07.265Z,101618.80
2023-05-19T18:41:09.347Z,101624.84
2023-05-19T18:46:12.942Z,101625.84
2023-05-19T18:51:15.559Z,101626.54
2023-05-19T18:56:27.891Z,101627.36
2023-05-19T19:01:30.012Z,101629.73
2023-05-19T19:06:32.119Z,101630.88
2023-05-19T19:11:35.570Z,101632.11
2023-05-19T19:16:38.151Z,101633.77
2023-05-19T19:21:40.344Z,101636.25
2023-05-19T19:26:42.727Z,101635.55
2023-05-19T19:31:44.986Z,101640.06
2023-05-19T19:36:49.252Z,101641.34
2023-05-19T19:41:51.949Z,101642.44
2023-05-19T19:46:54.294Z,101642.91
2023-05-19T19:51:56.955Z,101647.17
2023-05-19T19:56:59.727Z,101647.92
2023-05-19T20:02:02.764Z,101649.52
2023-05-19T20:07:04.862Z,101657.85
2023-05-19T20:12:08.237Z,101656.16
2023-05-19T20:17:10.918Z,101648.73
2023-05-19T20:22:13.720Z,101651.70
2023-05-19T20:27:16.112Z,101652.70
2023-05-19T20:32:18.625Z,101658.16
2023-05-19T20:37:22.014Z,101658.77
2023-05-19T20:42:24.035Z,101656.00
2023-05-19T20:47:26.937Z,101653.26
2023-05-19T20:52:31.901Z,101651.06
2023-05-19T20:57:34.444Z,101648.98
2023-05-19T21:02:36.768Z,101642.89
2023-05-19T21:07:39.022Z,101642.70
2023-05-19T21:12:42.319Z,101640.54
2023-05-19T21:17:44.849Z,101642.02
2023-05-19T21:22:48.024Z,101644.97
2023-05-19T21:27:51.753Z,101642.92
2023-05-19T21:32:54.646Z,101642.13
2023-05-19T21:37:56.729Z,101644.48
2023-05-19T21:42:58.702Z,101646.47
2023-05-19T21:48:00.784Z,101648.02
2023-05-19T21:53:03.075Z,101649.36
2023-05-19T21:58:05.255Z,101644.95
2023-05-19T22:03:07.587Z,101647.84
2023-05-19T22:08:10.544Z,101647.39
2023-05-19T22:13:12.421Z,101643.52
2023-05-19T22:18:14.907Z,101642.07
2023-05-19T22:23:16.787Z,101637.64
2023-05-19T22:28:18.663Z,101635.56
2023-05-19T22:33:20.819Z,101641.98
2023-05-19T22:38:22.635Z,101647.23
2023-05-19T22:43:24.704Z,101647.60
2023-05-19T22:48:26.577Z,101647.13
2023-05-19T22:53:28.451Z,101648.94
2023-05-19T22:58:30.237Z,101652.71
2023-05-19T23:03:34.154Z,101651.16
2023-05-19T23:08:36.130Z,101646.50
2023-05-19T23:13:38.005Z,101646.30
2023-05-19T23:18:40.112Z,101641.48
2023-05-19T23:23:42.067Z,101638.98
2023-05-19T23:28:44.249Z,101637.58
2023-05-19T23:33:46.133Z,101638.24
2023-05-19T23:38:47.986Z,101641.71
2023-05-19T23:43:49.987Z,101640.15
2023-05-19T23:48:51.873Z,101642.30
2023-05-19T23:53:53.745Z,101641.67
2023-05-19T23:58:55.727Z,101635.98
